createdAt,value
2019-06-07T05:00:48.688Z,99.90
2019-06-07T05:03:13.021Z,99.90
2019-06-07T05:08:43.641Z,99.90
2019-06-07T05:11:10.245Z,99.90
2019-06-07T05:13:43.744Z,99.90
2019-06-07T05:16:10.859Z,99.90
2019-06-07T05:18:42.916Z,99.90
2019-06-07T05:21:15.547Z,99.90
2019-06-07T05:24:07.400Z,99.90
2019-06-07T05:26:16.109Z,99.90
2019-06-07T05:28:45.277Z,99.90
2019-06-07T05:31:14.841Z,99.90
2019-06-07T05:33:44.238Z,99.90
2019-06-07T05:36:13.447Z,99.90
2019-06-07T05:38:45.006Z,99.90
2019-06-07T05:41:13.989Z,99.90
2019-06-07T05:43:51.482Z,99.90
2019-06-07T05:46:14.165Z,99.90
2019-06-07T05:48:43.906Z,99.90
2019-06-07T05:51:12.697Z,99.90
2019-06-07T05:53:43.130Z,99.90
2019-06-07T05:56:13.757Z,99.90
2019-06-07T05:58:44.697Z,99.90
2019-06-07T06:01:42.268Z,99.90
2019-06-07T06:03:48.210Z,99.90
2019-06-07T06:06:16.480Z,99.90
2019-06-07T06:08:47.977Z,99.90
2019-06-07T06:11:17.281Z,99.90
2019-06-07T06:14:05.665Z,99.90
2019-06-07T06:16:17.900Z,99.90
2019-06-07T06:18:49.048Z,99.90
2019-06-07T06:21:20.232Z,99.90
2019-06-07T06:23:51.886Z,99.90
2019-06-07T06:26:20.848Z,99.90
2019-06-07T06:28:50.206Z,99.90
2019-06-07T06:31:19.673Z,99.90
2019-06-07T06:33:49.915Z,99.90
2019-06-07T06:36:19.829Z,99.90
2019-06-07T06:38:51.606Z,99.90
2019-06-07T06:41:21.217Z,99.90
2019-06-07T06:43:52.644Z,99.90
2019-06-07T06:46:37.931Z,99.90
2019-06-07T06:48:55.362Z,99.90
2019-06-07T06:51:25.500Z,99.90
2019-06-07T06:53:54.970Z,99.90
2019-06-07T06:56:24.451Z,99.90
2019-06-07T06:59:35.242Z,99.90
2019-06-07T07:01:24.874Z,99.90
2019-06-07T07:04:11.569Z,99.90
2019-06-07T07:06:27.027Z,99.90
2019-06-07T07:08:57.894Z,99.90
2019-06-07T07:11:27.403Z,99.90
2019-06-07T07:13:57.258Z,99.90
2019-06-07T07:16:31.411Z,99.90
2019-06-07T07:19:00.647Z,99.90
2019-06-07T07:21:29.962Z,99.90
2019-06-07T07:24:20.506Z,99.90
2019-06-07T07:26:30.557Z,99.90
2019-06-07T07:28:59.895Z,99.90
2019-06-07T07:31:29.220Z,99.90
2019-06-07T07:34:28.304Z,99.90
2019-06-07T07:36:39.179Z,99.90
2019-06-07T07:39:05.035Z,99.90
2019-06-07T07:41:31.632Z,99.90
2019-06-07T07:44:06.494Z,99.90
2019-06-07T07:46:32.019Z,99.90
2019-06-07T07:49:01.358Z,99.90
2019-06-07T07:51:31.169Z,99.90
2019-06-07T07:54:10.168Z,99.90
2019-06-07T07:56:31.573Z,99.90
2019-06-07T07:59:02.338Z,99.90
2019-06-07T08:01:32.165Z,99.90
2019-06-07T08:04:01.384Z,99.90
2019-06-07T08:06:31.265Z,99.90
2019-06-07T08:09:00.568Z,99.90
2019-06-07T08:11:29.939Z,99.90
2019-06-07T08:13:59.586Z,99.90
2019-06-07T08:16:29.304Z,99.90
2019-06-07T08:19:03.836Z,99.90
2019-06-07T08:21:29.892Z,99.90
2019-06-07T08:24:03.658Z,99.90
2019-06-07T08:26:31.150Z,99.90
2019-06-07T08:29:02.797Z,99.90
2019-06-07T08:31:31.804Z,99.90
2019-06-07T08:34:01.134Z,99.90
2019-06-07T08:36:41.471Z,99.90
2019-06-07T08:39:07.202Z,99.90
2019-06-07T08:41:32.499Z,99.90
2019-06-07T08:44:21.815Z,99.90
2019-06-07T08:46:33.356Z,99.90
2019-06-07T08:49:04.780Z,99.70
2019-06-07T08:51:34.356Z,99.90
2019-06-07T08:54:21.597Z,99.40
2019-06-07T08:56:35.106Z,99.10
2019-06-07T08:59:11.137Z,99.20
2019-06-07T09:01:35.389Z,98.30
2019-06-07T09:04:09.976Z,99.50
2019-06-07T09:09:08.482Z,96.60
2019-06-07T09:11:37.789Z,97.20
2019-06-07T09:14:09.152Z,97.90
2019-06-07T09:16:38.310Z,95.90
2019-06-07T09:19:10.821Z,96.90
2019-06-07T09:21:38.899Z,96.90
2019-06-07T09:24:11.783Z,97.10
2019-06-07T09:26:39.790Z,96.60
2019-06-07T09:29:12.021Z,96.90
2019-06-07T09:31:52.521Z,96.00
2019-06-07T09:34:14.898Z,96.30
2019-06-07T09:36:43.043Z,96.20
2019-06-07T09:39:12.884Z,96.20
2019-06-07T09:41:49.706Z,96.50
2019-06-07T09:44:25.100Z,97.00
2019-06-07T09:46:46.046Z,95.70
2019-06-07T09:49:28.529Z,96.00
2019-06-07T09:51:47.535Z,96.80
2019-06-07T09:55:02.487Z,95.50
2019-06-07T09:56:48.254Z,94.90
2019-06-07T09:59:17.732Z,95.00
2019-06-07T10:01:47.902Z,94.80
2019-06-07T10:04:30.864Z,95.40
2019-06-07T10:06:48.431Z,93.90
2019-06-07T10:11:48.896Z,94.40
2019-06-07T10:14:18.249Z,94.20
2019-06-07T10:16:48.566Z,93.80
2019-06-07T10:19:18.259Z,93.80
2019-06-07T10:21:47.704Z,93.70
2019-06-07T10:24:17.156Z,93.10
2019-06-07T10:26:46.537Z,93.50
2019-06-07T10:29:15.929Z,93.00
2019-06-07T10:31:45.291Z,93.20
2019-06-07T10:34:14.674Z,92.90
2019-06-07T10:36:44.249Z,92.70
2019-06-07T10:39:13.718Z,93.00
2019-06-07T10:41:43.166Z,92.10
2019-06-07T10:44:12.533Z,92.70
2019-06-07T10:46:41.933Z,93.00
2019-06-07T10:49:12.217Z,93.10
2019-06-07T10:51:41.943Z,92.30
2019-06-07T10:54:25.791Z,92.90
2019-06-07T10:56:42.471Z,92.50
2019-06-07T10:59:13.577Z,91.50
2019-06-07T11:01:43.514Z,91.20
2019-06-07T11:04:13.823Z,91.20
2019-06-07T11:06:43.337Z,91.10
2019-06-07T11:09:14.119Z,91.50
2019-06-07T11:11:44.111Z,91.10
2019-06-07T11:14:14.764Z,90.80
2019-06-07T11:16:44.346Z,91.20
2019-06-07T11:19:16.333Z,91.00
2019-06-07T11:21:44.757Z,91.00
2019-06-07T11:24:14.461Z,90.00
2019-06-07T11:26:43.998Z,90.40
2019-06-07T11:29:15.066Z,89.60
2019-06-07T11:31:47.382Z,90.00
2019-06-07T11:34:15.483Z,90.90
2019-06-07T11:36:44.954Z,90.90
2019-06-07T11:39:15.180Z,89.80
2019-06-07T11:41:44.669Z,89.30
2019-06-07T11:44:17.093Z,88.90
2019-06-07T11:46:47.765Z,90.20
2019-06-07T11:49:20.384Z,88.80
2019-06-07T11:51:48.364Z,88.70
2019-06-07T11:54:20.297Z,88.80
2019-06-07T11:56:49.169Z,89.00
2019-06-07T11:59:18.639Z,86.20
2019-06-07T12:05:30.046Z,86.60
2019-06-07T12:07:59.247Z,86.70
2019-06-07T12:10:41.793Z,88.40
2019-06-07T12:12:59.799Z,88.00
2019-06-07T12:15:32.006Z,86.70
2019-06-07T12:18:01.511Z,86.10
2019-06-07T12:20:31.519Z,86.90
2019-06-07T12:23:00.950Z,87.10
2019-06-07T12:25:30.331Z,87.20
2019-06-07T12:27:59.704Z,85.80
2019-06-07T12:30:29.077Z,84.80
2019-06-07T12:32:58.790Z,86.20
2019-06-07T12:35:28.031Z,86.40
2019-06-07T12:37:58.354Z,86.70
2019-06-07T12:40:32.282Z,86.70
2019-06-07T12:42:59.778Z,88.70
2019-06-07T12:45:45.620Z,88.10
2019-06-07T12:48:00.584Z,86.50
2019-06-07T12:50:42.621Z,87.40
2019-06-07T12:53:01.106Z,87.70
2019-06-07T12:55:30.661Z,85.70
2019-06-07T12:58:00.149Z,87.30
2019-06-07T13:00:29.686Z,87.30
2019-06-07T13:02:59.328Z,85.30
2019-06-07T13:05:30.728Z,85.10
2019-06-07T13:07:59.857Z,85.00
2019-06-07T13:10:29.153Z,85.70
2019-06-07T13:12:59.773Z,86.10
2019-06-07T13:15:29.272Z,87.30
2019-06-07T13:17:59.760Z,85.90
2019-06-07T13:20:29.234Z,86.80
2019-06-07T13:22:58.764Z,85.70
2019-06-07T13:25:45.246Z,84.00
2019-06-07T13:27:59.390Z,85.60
2019-06-07T13:30:31.589Z,85.00
2019-06-07T13:33:00.929Z,83.70
2019-06-07T13:35:30.348Z,85.10
2019-06-07T13:37:59.915Z,85.70
2019-06-07T13:40:30.383Z,84.10
2019-06-07T13:42:59.882Z,83.90
2019-06-07T13:45:32.286Z,84.00
2019-06-07T13:48:01.429Z,85.00
2019-06-07T13:50:54.653Z,85.30
2019-06-07T13:53:25.506Z,84.00
2019-06-07T13:55:54.953Z,83.80
2019-06-07T13:58:24.347Z,83.30
2019-06-07T14:00:53.858Z,82.50
2019-06-07T14:03:28.355Z,83.80
2019-06-07T14:05:54.468Z,84.20
2019-06-07T14:08:25.230Z,83.00
2019-06-07T14:10:54.675Z,82.90
2019-06-07T14:13:23.948Z,82.60
2019-06-07T14:15:53.220Z,83.00
2019-06-07T14:18:22.648Z,83.20
2019-06-07T14:20:52.078Z,83.10
2019-06-07T14:23:41.296Z,83.50
2019-06-07T14:25:53.640Z,83.30
2019-06-07T14:28:26.654Z,85.20
2019-06-07T14:30:54.223Z,83.20
2019-06-07T14:33:26.448Z,83.90
2019-06-07T14:35:55.654Z,83.50
2019-06-07T14:38:27.139Z,83.50
2019-06-07T14:40:56.784Z,84.70
2019-06-07T14:43:27.691Z,83.40
2019-06-07T14:45:57.100Z,83.60
2019-06-07T14:48:27.900Z,83.90
2019-06-07T14:54:33.481Z,84.50
2019-06-07T14:57:03.765Z,83.90
2019-06-07T14:59:54.843Z,84.00
2019-06-07T15:02:28.320Z,84.10
2019-06-07T15:04:59.975Z,82.30
2019-06-07T15:07:30.897Z,83.30
2019-06-07T15:10:00.971Z,83.60
2019-06-07T15:12:31.460Z,85.10
2019-06-07T15:17:49.633Z,84.40
2019-06-07T15:20:25.540Z,83.60
2019-06-07T15:22:59.424Z,82.20
2019-06-07T15:25:29.211Z,84.00
2019-06-07T15:27:58.768Z,84.10
2019-06-07T15:30:29.601Z,82.90
2019-06-07T15:32:59.974Z,83.80
2019-06-07T15:35:30.219Z,84.10
2019-06-07T15:37:59.996Z,85.20
2019-06-07T15:40:30.904Z,85.30
2019-06-07T15:43:00.361Z,85.70
2019-06-07T15:45:29.825Z,85.10
2019-06-07T15:47:59.568Z,85.90
2019-06-07T15:50:30.471Z,86.00
2019-06-07T15:52:59.969Z,86.10
2019-06-07T15:55:48.728Z,85.90
2019-06-07T15:58:18.347Z,85.40
2019-06-07T16:00:50.027Z,85.80
2019-06-07T16:03:18.875Z,86.10
2019-06-07T16:05:48.298Z,86.80
2019-06-07T16:08:17.708Z,87.10
2019-06-07T16:10:47.140Z,87.80
2019-06-07T16:13:16.582Z,88.20
2019-06-07T16:15:45.972Z,88.10
2019-06-07T16:18:15.308Z,88.40
2019-06-07T16:20:44.709Z,88.20
2019-06-07T16:23:14.063Z,88.40
2019-06-07T16:25:44.387Z,88.40
2019-06-07T16:28:15.295Z,89.70
2019-06-07T16:30:44.873Z,89.50
2019-06-07T16:33:14.200Z,90.10
2019-06-07T16:35:45.240Z,88.90
2019-06-07T16:38:14.542Z,89.80
2019-06-07T16:40:44.640Z,90.10
2019-06-07T16:43:33.200Z,90.80
2019-06-07T16:46:02.853Z,90.50
2019-06-07T16:48:32.205Z,90.90
2019-06-07T16:51:01.625Z,90.90
2019-06-07T16:53:31.222Z,91.00
2019-06-07T16:56:00.520Z,91.30
2019-06-07T16:58:29.937Z,91.40
2019-06-07T17:01:02.241Z,91.40
2019-06-07T17:03:31.653Z,91.30
2019-06-07T17:06:00.955Z,91.50
2019-06-07T17:08:30.316Z,91.40
2019-06-07T17:10:59.454Z,91.80
2019-06-07T17:13:33.480Z,91.80
2019-06-07T17:15:59.852Z,91.70
2019-06-07T17:18:36.788Z,91.70
2019-06-07T17:21:00.449Z,91.40
2019-06-07T17:23:29.915Z,91.70
2019-06-07T17:25:59.280Z,91.70
2019-06-07T17:28:28.715Z,91.60
2019-06-07T17:30:58.011Z,91.80
2019-06-07T17:33:28.524Z,91.90
2019-06-07T17:35:58.100Z,92.20
2019-06-07T17:38:27.527Z,92.00
2019-06-07T17:40:57.156Z,92.10
2019-06-07T17:43:26.540Z,92.40
